createdAt,value
2023-06-24T00:00:25.421Z,2.35
2023-06-24T00:03:27.914Z,1.90
2023-06-24T00:06:30.273Z,2.30
2023-06-24T00:09:32.472Z,2.20
2023-06-24T00:12:34.698Z,2.10
2023-06-24T00:15:36.931Z,2.35
2023-06-24T00:18:42.608Z,2.20
2023-06-24T00:21:45.648Z,1.77
2023-06-24T00:24:47.893Z,2.00
2023-06-24T00:27:50.121Z,2.20
2023-06-24T00:30:52.357Z,2.00
2023-06-24T00:33:54.639Z,1.85
2023-06-24T00:36:56.993Z,2.42
2023-06-24T00:39:59.369Z,2.03
2023-06-24T00:43:02.811Z,2.25
2023-06-24T00:46:05.163Z,2.28
2023-06-24T00:49:07.560Z,2.25
2023-06-24T00:52:12.076Z,1.90
2023-06-24T00:55:16.315Z,2.30
2023-06-24T00:58:22.047Z,2.30
2023-06-24T01:01:24.940Z,2.20
2023-06-24T01:04:27.292Z,2.53
2023-06-24T01:07:31.193Z,2.30
2023-06-24T01:10:33.599Z,2.40
2023-06-24T01:13:35.837Z,2.15
2023-06-24T01:16:40.648Z,1.80
2023-06-24T01:19:54.735Z,1.73
2023-06-24T01:23:15.091Z,2.10
2023-06-24T01:26:52.543Z,2.10
2023-06-24T01:30:13.407Z,1.87
2023-06-24T01:33:21.678Z,2.40
2023-06-24T01:36:26.590Z,1.90
2023-06-24T01:39:29.406Z,1.70
2023-06-24T01:42:31.888Z,1.65
2023-06-24T01:45:38.304Z,1.70
2023-06-24T01:48:42.259Z,1.70
2023-06-24T01:51:46.211Z,1.85
2023-06-24T01:54:49.195Z,1.90
2023-06-24T01:57:52.097Z,1.67
2023-06-24T02:00:55.084Z,1.80
2023-06-24T02:03:58.257Z,1.67
2023-06-24T02:07:02.745Z,1.50
2023-06-24T02:10:05.545Z,1.55
2023-06-24T02:13:09.804Z,1.85
2023-06-24T02:16:12.357Z,1.70
2023-06-24T02:19:18.860Z,1.92
2023-06-24T02:22:21.419Z,1.83
2023-06-24T02:25:25.146Z,1.87
2023-06-24T02:28:27.464Z,1.58
2023-06-24T02:31:29.708Z,1.70
2023-06-24T02:34:32.060Z,1.55
2023-06-24T02:37:34.621Z,1.58
2023-06-24T02:40:36.967Z,1.67
2023-06-24T02:43:39.278Z,1.48
2023-06-24T02:46:42.426Z,1.87
2023-06-24T02:49:47.374Z,1.90
2023-06-24T02:52:49.816Z,1.95
2023-06-24T02:55:52.314Z,1.60
2023-06-24T02:58:55.233Z,2.10
2023-06-24T03:01:57.780Z,1.70
2023-06-24T03:05:02.308Z,1.58
2023-06-24T03:08:04.878Z,2.17
2023-06-24T03:11:07.109Z,1.92
2023-06-24T03:14:09.947Z,2.50
2023-06-24T03:17:12.692Z,2.45
2023-06-24T03:20:14.942Z,2.10
2023-06-24T03:23:17.195Z,1.40
2023-06-24T03:26:19.409Z,1.50
2023-06-24T03:29:21.578Z,1.15
2023-06-24T03:32:23.836Z,1.23
2023-06-24T03:35:26.093Z,1.55
2023-06-24T03:38:29.115Z,1.62
2023-06-24T03:41:31.313Z,1.62
2023-06-24T03:44:33.557Z,1.10
2023-06-24T03:47:35.963Z,1.10
2023-06-24T03:50:38.280Z,0.93
2023-06-24T03:53:40.482Z,1.02
2023-06-24T03:56:42.705Z,1.48
2023-06-24T03:59:44.898Z,1.25
2023-06-24T04:02:47.274Z,1.20
2023-06-24T04:05:49.508Z,0.93
2023-06-24T04:08:53.090Z,1.08
2023-06-24T04:11:55.323Z,1.20
2023-06-24T04:14:57.533Z,1.23
2023-06-24T04:17:59.823Z,1.40
2023-06-24T04:21:02.080Z,1.45
2023-06-24T04:24:05.129Z,1.70
2023-06-24T04:27:09.340Z,1.20
2023-06-24T04:30:11.924Z,1.17
2023-06-24T04:33:14.156Z,1.00
2023-06-24T04:36:17.454Z,0.80
2023-06-24T04:39:19.683Z,0.95
2023-06-24T04:42:23.664Z,0.90
2023-06-24T04:45:26.330Z,0.77
2023-06-24T04:48:28.666Z,1.45
2023-06-24T04:51:30.953Z,0.80
2023-06-24T04:54:33.143Z,0.70
2023-06-24T04:57:35.624Z,0.70
2023-06-24T05:00:37.855Z,0.70
2023-06-24T05:03:40.192Z,0.80
2023-06-24T05:06:42.546Z,1.15
2023-06-24T05:09:47.574Z,0.60
2023-06-24T05:12:49.850Z,0.95
2023-06-24T05:15:52.039Z,1.00
2023-06-24T05:18:54.206Z,0.70
2023-06-24T05:21:56.640Z,0.80
2023-06-24T05:24:58.890Z,0.60
2023-06-24T05:28:01.076Z,0.80
2023-06-24T05:31:03.362Z,0.70
2023-06-24T05:34:05.621Z,0.75
2023-06-24T05:37:07.864Z,0.80
2023-06-24T05:40:10.674Z,0.65
2023-06-24T05:43:12.944Z,0.88
2023-06-24T05:46:15.620Z,0.70
2023-06-24T05:49:17.963Z,0.70
2023-06-24T05:52:20.129Z,0.52
2023-06-24T05:55:22.530Z,0.80
2023-06-24T05:58:24.790Z,0.90
2023-06-24T06:01:27.084Z,0.65
2023-06-24T06:04:29.780Z,0.70
2023-06-24T06:07:32.098Z,0.70
2023-06-24T06:10:34.289Z,0.70
2023-06-24T06:13:36.561Z,0.70
2023-06-24T06:16:38.746Z,0.82
2023-06-24T06:19:42.433Z,0.70
2023-06-24T06:22:44.592Z,0.80
2023-06-24T06:25:49.335Z,0.80
2023-06-24T06:28:52.318Z,0.70
2023-06-24T06:31:56.423Z,0.70
2023-06-24T06:34:58.846Z,0.90
2023-06-24T06:38:01.140Z,0.70
2023-06-24T06:41:03.408Z,0.77
2023-06-24T06:44:05.741Z,0.73
2023-06-24T06:47:08.173Z,0.62
2023-06-24T06:50:10.723Z,0.82
2023-06-24T06:53:12.954Z,0.73
2023-06-24T06:56:23.723Z,0.80
2023-06-24T06:59:25.920Z,0.77
2023-06-24T07:02:28.227Z,1.00
2023-06-24T07:05:30.498Z,0.80
2023-06-24T07:08:32.698Z,0.95
2023-06-24T07:11:34.955Z,1.05
2023-06-24T07:14:37.243Z,1.00
2023-06-24T07:17:39.595Z,1.00
2023-06-24T07:20:42.603Z,0.80
2023-06-24T07:23:45.334Z,0.80
2023-06-24T07:26:47.648Z,0.88
2023-06-24T07:29:49.873Z,0.80
2023-06-24T07:32:52.083Z,0.95
2023-06-24T07:35:54.392Z,0.85
2023-06-24T07:38:56.593Z,0.98
2023-06-24T07:41:59.082Z,0.88
2023-06-24T07:45:01.329Z,0.90
2023-06-24T07:48:03.777Z,1.02
2023-06-24T07:51:06.026Z,0.77
2023-06-24T07:54:08.280Z,0.90
2023-06-24T07:57:10.485Z,0.90
2023-06-24T08:00:13.286Z,0.80
2023-06-24T08:03:15.761Z,1.12
2023-06-24T08:06:18.325Z,1.10
2023-06-24T08:09:20.782Z,0.80
2023-06-24T08:12:23.045Z,1.08
2023-06-24T08:15:25.336Z,1.00
2023-06-24T08:18:27.594Z,0.75
2023-06-24T08:21:30.883Z,0.80
2023-06-24T08:24:33.381Z,1.20
2023-06-24T08:27:35.601Z,1.10
2023-06-24T08:30:37.873Z,0.80
2023-06-24T08:33:40.172Z,0.93
2023-06-24T08:36:42.442Z,1.00
2023-06-24T08:39:44.633Z,0.73
2023-06-24T08:42:46.851Z,0.80
2023-06-24T08:45:49.198Z,0.80
2023-06-24T08:48:55.775Z,1.00
2023-06-24T08:52:04.815Z,0.90
2023-06-24T08:55:08.545Z,0.88
2023-06-24T08:58:10.840Z,1.10
2023-06-24T09:01:13.576Z,0.90
2023-06-24T09:04:15.814Z,0.90
2023-06-24T09:07:29.272Z,0.80
2023-06-24T09:10:36.259Z,0.95
2023-06-24T09:13:38.547Z,1.20
2023-06-24T09:16:40.771Z,0.90
2023-06-24T09:19:43.110Z,1.77
2023-06-24T09:22:45.352Z,0.88
2023-06-24T09:25:58.031Z,1.00
2023-06-24T09:29:00.482Z,0.88
2023-06-24T09:32:06.496Z,0.90
2023-06-24T09:35:11.052Z,0.90
2023-06-24T09:38:15.121Z,1.10
2023-06-24T09:41:17.748Z,1.10
2023-06-24T09:44:20.330Z,1.00
2023-06-24T09:47:26.244Z,1.02
2023-06-24T09:50:28.746Z,1.12
2023-06-24T09:53:32.764Z,1.00
2023-06-24T09:56:39.900Z,1.00
2023-06-24T09:59:42.835Z,0.80
2023-06-24T10:02:46.000Z,1.37
2023-06-24T10:05:48.407Z,0.98
2023-06-24T10:08:51.023Z,1.00
2023-06-24T10:11:53.228Z,0.90
2023-06-24T10:14:55.735Z,1.05
2023-06-24T10:21:10.891Z,1.23
2023-06-24T10:24:13.636Z,1.08
2023-06-24T10:27:18.041Z,1.02
2023-06-24T10:30:21.322Z,1.02
2023-06-24T10:33:25.573Z,1.23
2023-06-24T10:36:33.990Z,0.90
2023-06-24T10:39:51.003Z,1.10
2023-06-24T10:42:55.165Z,1.10
2023-06-24T10:45:59.224Z,1.20
2023-06-24T10:49:01.422Z,1.00
2023-06-24T10:52:03.999Z,1.12
2023-06-24T10:55:08.237Z,1.23
2023-06-24T10:58:12.864Z,1.20
2023-06-24T11:01:16.960Z,1.20
2023-06-24T11:04:19.171Z,1.08
2023-06-24T11:07:23.293Z,1.30
2023-06-24T11:10:26.233Z,1.55
2023-06-24T11:13:30.350Z,1.37
2023-06-24T11:16:32.611Z,1.10
2023-06-24T11:19:35.391Z,1.30
2023-06-24T11:22:37.737Z,1.40
2023-06-24T11:25:44.063Z,1.40
2023-06-24T11:28:46.286Z,1.25
2023-06-24T11:31:53.015Z,1.20
2023-06-24T11:34:55.550Z,1.20
2023-06-24T11:37:59.362Z,1.10
2023-06-24T11:41:01.595Z,1.05
2023-06-24T11:44:04.248Z,1.33
2023-06-24T11:47:08.014Z,1.27
2023-06-24T11:50:10.765Z,1.35
2023-06-24T11:53:13.077Z,1.17
2023-06-24T11:56:15.384Z,1.15
2023-06-24T11:59:18.899Z,1.50
2023-06-24T12:02:21.177Z,0.95
2023-06-24T12:05:29.726Z,1.10
2023-06-24T12:08:46.851Z,1.30
2023-06-24T12:11:53.819Z,1.23
2023-06-24T12:14:56.628Z,0.93
2023-06-24T12:17:59.320Z,1.27
2023-06-24T12:21:01.541Z,1.10
2023-06-24T12:24:04.015Z,1.05
2023-06-24T12:27:09.470Z,1.27
2023-06-24T12:30:13.008Z,1.42
2023-06-24T12:33:16.662Z,1.20
2023-06-24T12:36:22.940Z,1.20
2023-06-24T12:39:25.148Z,1.00
2023-06-24T12:42:27.856Z,1.08
2023-06-24T12:45:30.057Z,1.12
2023-06-24T12:48:32.282Z,1.27
2023-06-24T12:51:34.557Z,0.93
2023-06-24T12:54:36.947Z,1.08
2023-06-24T12:57:39.468Z,1.02
2023-06-24T13:00:42.052Z,1.10
2023-06-24T13:03:44.568Z,0.90
2023-06-24T13:06:47.499Z,0.95
2023-06-24T13:09:49.738Z,0.98
2023-06-24T13:12:52.680Z,1.20
2023-06-24T13:15:54.911Z,1.00
2023-06-24T13:18:57.138Z,1.48
2023-06-24T13:22:00.283Z,1.10
2023-06-24T13:25:02.543Z,0.95
2023-06-24T13:28:05.016Z,1.27
2023-06-24T13:31:07.293Z,0.93
2023-06-24T13:34:09.616Z,1.20
2023-06-24T13:37:12.202Z,1.08
2023-06-24T13:40:15.268Z,1.20
2023-06-24T13:43:17.568Z,1.10
2023-06-24T13:46:19.791Z,0.93
2023-06-24T13:49:22.244Z,1.10
2023-06-24T13:52:24.481Z,0.93
2023-06-24T13:55:26.704Z,0.90
2023-06-24T13:58:28.925Z,1.08
2023-06-24T14:01:32.608Z,1.20
2023-06-24T14:04:35.047Z,1.20
2023-06-24T14:07:37.255Z,1.00
2023-06-24T14:10:39.719Z,1.08
2023-06-24T14:13:42.482Z,1.20
2023-06-24T14:16:44.720Z,1.20
2023-06-24T14:19:47.473Z,1.45
2023-06-24T14:22:49.710Z,1.05
2023-06-24T14:25:52.238Z,1.42
2023-06-24T14:28:54.445Z,1.40
2023-06-24T14:31:56.653Z,1.35
2023-06-24T14:34:58.944Z,1.40
2023-06-24T14:38:01.190Z,1.48
2023-06-24T14:41:03.496Z,1.30
2023-06-24T14:44:05.782Z,1.52
2023-06-24T14:47:08.211Z,1.50
2023-06-24T14:50:10.597Z,1.70
2023-06-24T14:53:12.940Z,1.50
2023-06-24T14:56:15.242Z,1.37
2023-06-24T14:59:17.457Z,1.70
2023-06-24T15:02:20.035Z,1.80
2023-06-24T15:05:22.640Z,1.90
2023-06-24T15:08:26.758Z,1.90
2023-06-24T15:11:28.959Z,1.80
2023-06-24T15:14:31.123Z,1.80
2023-06-24T15:17:35.921Z,1.73
2023-06-24T15:20:38.471Z,1.75
2023-06-24T15:23:41.035Z,1.83
2023-06-24T15:26:43.290Z,1.50
2023-06-24T15:29:45.560Z,2.10
2023-06-24T15:32:47.864Z,1.67
2023-06-24T15:35:50.128Z,1.58
2023-06-24T15:38:52.419Z,1.92
2023-06-24T15:41:54.620Z,1.77
2023-06-24T15:44:57.252Z,1.75
2023-06-24T15:47:59.502Z,1.48
2023-06-24T15:51:01.748Z,1.75
2023-06-24T15:54:04.057Z,2.53
2023-06-24T15:57:06.326Z,2.00
2023-06-24T16:00:08.857Z,1.70
2023-06-24T16:03:11.143Z,1.85
2023-06-24T16:06:13.432Z,2.10
2023-06-24T16:09:16.003Z,1.90
2023-06-24T16:12:18.378Z,1.77
2023-06-24T16:15:20.787Z,1.92
2023-06-24T16:18:22.980Z,2.00
2023-06-24T16:21:25.215Z,2.33
2023-06-24T16:24:28.585Z,2.00
2023-06-24T16:27:30.845Z,2.17
2023-06-24T16:30:33.212Z,2.20
2023-06-24T16:33:36.110Z,2.30
2023-06-24T16:36:38.398Z,2.05
2023-06-24T16:39:40.608Z,2.30
2023-06-24T16:42:42.852Z,3.28
2023-06-24T16:45:47.659Z,1.90
2023-06-24T16:48:50.237Z,2.28
2023-06-24T16:51:52.438Z,1.90
2023-06-24T16:54:54.978Z,1.80
2023-06-24T16:57:57.266Z,2.12
2023-06-24T17:00:59.547Z,1.85
2023-06-24T17:04:01.901Z,2.10
2023-06-24T17:07:04.484Z,2.30
2023-06-24T17:10:07.132Z,2.22
2023-06-24T17:13:09.344Z,1.95
2023-06-24T17:16:11.586Z,1.90
2023-06-24T17:19:14.912Z,2.00
2023-06-24T17:22:17.308Z,2.17
2023-06-24T17:25:19.756Z,1.77
2023-06-24T17:28:22.044Z,2.15
2023-06-24T17:31:24.416Z,2.20
2023-06-24T17:34:27.197Z,2.17
2023-06-24T17:37:29.414Z,1.92
2023-06-24T17:40:31.611Z,2.08
2023-06-24T17:43:33.762Z,1.83
2023-06-24T17:46:36.017Z,1.85
2023-06-24T17:49:38.288Z,2.15
2023-06-24T17:52:40.559Z,1.83
2023-06-24T17:55:42.843Z,2.37
2023-06-24T17:58:45.056Z,1.98
2023-06-24T18:01:47.318Z,1.83
2023-06-24T18:04:49.775Z,2.08
2023-06-24T18:07:51.988Z,2.20
2023-06-24T18:10:54.249Z,2.17
2023-06-24T18:13:56.494Z,2.12
2023-06-24T18:16:58.723Z,2.10
2023-06-24T18:20:00.967Z,2.17
2023-06-24T18:23:03.296Z,2.17
2023-06-24T18:26:05.582Z,1.92
2023-06-24T18:29:07.868Z,2.70
2023-06-24T18:32:11.141Z,2.22
2023-06-24T18:35:13.396Z,2.30
2023-06-24T18:38:15.624Z,2.75
2023-06-24T18:41:17.916Z,2.70
2023-06-24T18:44:20.153Z,2.65
2023-06-24T18:47:22.501Z,2.50
2023-06-24T18:50:24.715Z,2.45
2023-06-24T18:53:28.005Z,2.85
2023-06-24T18:56:31.084Z,2.30
2023-06-24T18:59:33.259Z,2.50
2023-06-24T19:02:35.532Z,2.50
2023-06-24T19:05:37.810Z,2.30
2023-06-24T19:08:40.014Z,2.70
2023-06-24T19:11:42.374Z,2.90
2023-06-24T19:14:46.588Z,2.53
2023-06-24T19:17:49.234Z,2.40
2023-06-24T19:20:51.510Z,2.45
2023-06-24T19:23:53.757Z,2.92
2023-06-24T19:26:56.002Z,2.47
2023-06-24T19:29:58.302Z,2.72
2023-06-24T19:33:00.601Z,2.70
2023-06-24T19:36:02.934Z,2.62
2023-06-24T19:39:05.109Z,2.65
2023-06-24T19:42:07.408Z,3.03
2023-06-24T19:45:10.767Z,2.70
2023-06-24T19:48:13.114Z,2.87
2023-06-24T19:51:15.408Z,3.25
2023-06-24T19:54:17.587Z,2.55
2023-06-24T19:57:20.284Z,3.00
2023-06-24T20:00:24.167Z,2.62
2023-06-24T20:03:26.594Z,3.08
2023-06-24T20:06:28.788Z,2.75
2023-06-24T20:09:31.025Z,2.53
2023-06-24T20:12:33.241Z,2.60
2023-06-24T20:15:35.474Z,3.08
2023-06-24T20:18:37.662Z,2.35
2023-06-24T20:21:39.968Z,2.95
2023-06-24T20:24:42.169Z,2.78
2023-06-24T20:27:44.410Z,2.55
2023-06-24T20:30:48.183Z,2.85
2023-06-24T20:33:50.412Z,3.00
2023-06-24T20:36:52.644Z,3.08
2023-06-24T20:39:54.894Z,2.83
2023-06-24T20:42:58.048Z,2.50
2023-06-24T20:46:00.824Z,2.75
2023-06-24T20:49:03.248Z,2.75
2023-06-24T20:52:05.637Z,2.72
2023-06-24T20:55:08.128Z,2.85
2023-06-24T20:58:10.943Z,2.90
2023-06-24T21:01:14.424Z,2.70
2023-06-24T21:04:17.266Z,2.50
2023-06-24T21:07:19.487Z,2.78
2023-06-24T21:10:21.728Z,2.60
2023-06-24T21:13:23.952Z,2.25
2023-06-24T21:16:26.203Z,3.10
2023-06-24T21:19:28.375Z,2.70
2023-06-24T21:22:30.602Z,2.83
2023-06-24T21:25:32.809Z,2.35
2023-06-24T21:28:35.441Z,2.67
2023-06-24T21:31:37.794Z,2.20
2023-06-24T21:34:40.032Z,2.67
2023-06-24T21:37:42.229Z,2.35
2023-06-24T21:40:44.447Z,2.25
2023-06-24T21:43:46.689Z,2.25
2023-06-24T21:46:48.921Z,2.85
2023-06-24T21:49:51.228Z,2.80
2023-06-24T21:52:53.431Z,2.35
2023-06-24T21:55:55.646Z,2.20
2023-06-24T21:58:57.895Z,2.65
2023-06-24T22:02:00.107Z,2.30
2023-06-24T22:05:02.563Z,2.87
2023-06-24T22:08:05.057Z,2.87
2023-06-24T22:11:07.439Z,2.30
2023-06-24T22:14:09.695Z,2.75
2023-06-24T22:17:11.905Z,2.53
2023-06-24T22:20:14.145Z,2.78
2023-06-24T22:23:16.365Z,1.75
2023-06-24T22:26:18.544Z,1.65
2023-06-24T22:29:20.836Z,1.95
2023-06-24T22:32:23.073Z,1.40
2023-06-24T22:35:25.345Z,1.62
2023-06-24T22:38:27.574Z,1.60
2023-06-24T22:41:29.792Z,0.95
2023-06-24T22:44:32.296Z,1.30
2023-06-24T22:47:34.909Z,1.20
2023-06-24T22:50:37.518Z,1.23
2023-06-24T22:53:39.898Z,1.08
2023-06-24T22:56:42.145Z,1.20
2023-06-24T22:59:44.348Z,1.40
2023-06-24T23:02:46.830Z,1.40
2023-06-24T23:05:49.296Z,1.50
2023-06-24T23:08:51.750Z,1.10
2023-06-24T23:11:55.396Z,0.85
2023-06-24T23:14:58.015Z,1.00
2023-06-24T23:18:01.399Z,1.00
2023-06-24T23:21:04.120Z,1.00
2023-06-24T23:24:06.856Z,1.20
2023-06-24T23:27:09.701Z,1.10
2023-06-24T23:30:13.449Z,1.27
2023-06-24T23:33:18.233Z,1.20
2023-06-24T23:36:22.262Z,0.90
2023-06-24T23:39:24.640Z,1.00
2023-06-24T23:42:28.832Z,1.12
2023-06-24T23:45:31.417Z,1.30
2023-06-24T23:48:33.594Z,1.08
2023-06-24T23:51:35.797Z,1.30
2023-06-24T23:54:37.979Z,1.10
2023-06-24T23:57:40.167Z,1.80
